Time;durP1;ratioP1;P1;durP2;ratioP2;P2;SDS_P1;SDS_P2;PMS_P1;PMS_P2;Temp;Humidity;BMP_temperature;BMP_pressure;BME280_temperature;BME280_humidity;BME280_pressure;Samples;Min_cycle;Max_cycle;Signal;HPM_P1;HPM_P2
2023/02/05 00:02:05;;;;;;;;;9.50;7.00;;;;;;;;5008932;28;11672;-69
2023/02/05 00:04:30;;;;;;;;;7.50;7.00;;;;;;;;5009015;28;11470;-69
2023/02/05 00:06:55;;;;;;;;;5.00;4.75;;;;;;;;5008987;28;12531;-69
2023/02/05 00:09:21;;;;;;;;;5.50;5.50;;;;;;;;5007955;28;8919;-68
2023/02/05 00:11:46;;;;;;;;;7.25;5.00;;;;;;;;5009295;28;8889;-68
2023/02/05 00:14:11;;;;;;;;;1.25;0.00;;;;;;;;5007596;28;9563;-68
2023/02/05 00:16:37;;;;;;;;;6.50;4.00;;;;;;;;5009067;28;8838;-69
2023/02/05 00:19:02;;;;;;;;;7.00;2.00;;;;;;;;5023955;28;8835;-69
2023/02/05 00:21:27;;;;;;;;;10.50;8.50;;;;;;;;5008982;28;8796;-68
2023/02/05 00:23:53;;;;;;;;;5.00;4.00;;;;;;;;5009009;28;8808;-68
2023/02/05 00:26:18;;;;;;;;;5.25;5.25;;;;;;;;5023965;28;8839;-68
2023/02/05 00:28:44;;;;;;;;;4.00;3.50;;;;;;;;5008675;28;8819;-68
2023/02/05 00:31:11;;;;;;;;;5.00;4.00;;;;;;;;5008760;28;8788;-69
2023/02/05 00:33:36;;;;;;;;;3.50;3.50;;;;;;;;5008796;28;8784;-69
2023/02/05 00:36:02;;;;;;;;;1.75;1.75;;;;;;;;5008538;28;11436;-68
2023/02/05 00:38:27;;;;;;;;;5.25;4.00;;;;;;;;5008878;28;8889;-68
2023/02/05 00:40:52;;;;;;;;;6.50;3.00;;;;;;;;5007209;28;8799;-69
2023/02/05 00:43:18;;;;;;;;;2.00;2.00;;;;;;;;5008738;28;8885;-68
2023/02/05 00:45:43;;;;;;;;;1.25;1.25;;;;;;;;5008606;28;8942;-68
2023/02/05 00:48:08;;;;;;;;;3.50;3.50;;;;;;;;5008300;28;8827;-69
2023/02/05 00:50:34;;;;;;;;;4.75;4.75;;;;;;;;5008713;28;8800;-68
2023/02/05 00:52:59;;;;;;;;;4.25;4.00;;;;;;;;5008629;28;8812;-69
2023/02/05 00:55:24;;;;;;;;;5.00;5.00;;;;;;;;5008563;28;9534;-69
2023/02/05 00:57:50;;;;;;;;;4.00;4.00;;;;;;;;5008603;28;8926;-68
2023/02/05 01:00:15;;;;;;;;;4.50;4.25;;;;;;;;5008561;28;8781;-69
2023/02/05 01:02:41;;;;;;;;;7.25;7.00;;;;;;;;5008416;28;8814;-68
2023/02/05 01:05:06;;;;;;;;;5.50;4.00;;;;;;;;5008457;28;8911;-69
2023/02/05 01:07:32;;;;;;;;;7.00;5.00;;;;;;;;5008542;28;8824;-69
2023/02/05 01:09:57;;;;;;;;;9.25;7.00;;;;;;;;5008349;28;8781;-69
2023/02/05 01:12:23;;;;;;;;;3.00;3.00;;;;;;;;5008556;28;8824;-69
2023/02/05 01:14:48;;;;;;;;;3.50;3.50;;;;;;;;5009614;28;8835;-69
2023/02/05 01:17:13;;;;;;;;;9.50;7.00;;;;;;;;5012040;28;8820;-69
2023/02/05 01:19:39;;;;;;;;;9.00;8.33;;;;;;;;5010289;28;8812;-68
2023/02/05 01:22:04;;;;;;;;;10.00;10.00;;;;;;;;5011927;28;8863;-68
2023/02/05 01:24:29;;;;;;;;;14.33;7.00;;;;;;;;5011795;28;8800;-69
2023/02/05 01:26:57;;;;;;;;;7.67;6.00;;;;;;;;5011678;28;8941;-69
2023/02/05 01:29:22;;;;;;;;;4.67;4.67;;;;;;;;5010409;28;8827;-69
2023/02/05 01:31:48;;;;;;;;;6.00;6.00;;;;;;;;5011510;28;11464;-67
2023/02/05 01:34:13;;;;;;;;;5.00;5.00;;;;;;;;5011547;28;8784;-69
2023/02/05 01:36:38;;;;;;;;;4.00;4.00;;;;;;;;5011705;28;8804;-68
2023/02/05 01:39:04;;;;;;;;;4.00;4.00;;;;;;;;5011680;28;8820;-68
2023/02/05 01:41:29;;;;;;;;;9.00;6.33;;;;;;;;5011526;28;8935;-69
2023/02/05 01:44:23;;;;;;;;;6.50;3.75;;;;;;;;5011553;28;8776;-68
2023/02/05 01:46:52;;;;;;;;;6.50;6.50;;;;;;;;4989331;28;8970;-69
2023/02/05 01:49:27;;;;;;;;;7.00;6.25;;;;;;;;4989365;28;11533;-69
2023/02/05 01:51:54;;;;;;;;;7.75;5.00;;;;;;;;4972754;28;12373;-67
2023/02/05 01:54:21;;;;;;;;;6.00;4.00;;;;;;;;4989268;28;11505;-68
2023/02/05 01:56:53;;;;;;;;;4.00;3.25;;;;;;;;4989150;28;12369;-68
2023/02/05 01:59:20;;;;;;;;;3.50;3.50;;;;;;;;4988972;28;11694;-69
2023/02/05 02:01:46;;;;;;;;;4.00;1.00;;;;;;;;4989084;28;11509;-68
2023/02/05 02:04:14;;;;;;;;;8.75;6.25;;;;;;;;4988788;28;11686;-68
2023/02/05 02:06:39;;;;;;;;;0.00;0.00;;;;;;;;4988903;28;9609;-68
2023/02/05 02:09:05;;;;;;;;;2.00;2.00;;;;;;;;4988834;28;11484;-67
2023/02/05 02:11:33;;;;;;;;;2.00;2.00;;;;;;;;4988764;28;8812;-68
2023/02/05 02:14:02;;;;;;;;;1.00;1.00;;;;;;;;4988820;28;8838;-68
2023/02/05 02:16:27;;;;;;;;;0.25;0.25;;;;;;;;4988761;28;11529;-68
2023/02/05 02:18:53;;;;;;;;;4.00;3.00;;;;;;;;4988629;28;12315;-68
2023/02/05 02:21:18;;;;;;;;;6.00;6.00;;;;;;;;4988716;28;8820;-68
2023/02/05 02:23:43;;;;;;;;;6.00;6.00;;;;;;;;5004490;28;9611;-68
2023/02/05 02:26:15;;;;;;;;;9.00;7.00;;;;;;;;5010695;28;8890;-69
2023/02/05 02:28:51;;;;;;;;;10.00;9.00;;;;;;;;5010732;28;8930;-68
2023/02/05 02:31:40;;;;;;;;;7.00;7.00;;;;;;;;5010433;28;8796;-68
2023/02/05 02:34:28;;;;;;;;;6.00;6.00;;;;;;;;5010524;28;8869;-68
2023/02/05 02:37:02;;;;;;;;;6.00;6.00;;;;;;;;5010567;28;8796;-69
2023/02/05 02:39:35;;;;;;;;;4.00;4.00;;;;;;;;5009445;28;8842;-68
2023/02/05 02:42:00;;;;;;;;;7.00;4.67;;;;;;;;5010532;28;8818;-67
2023/02/05 02:44:45;;;;;;;;;7.00;7.00;;;;;;;;5010506;28;8764;-67
2023/02/05 02:47:14;;;;;;;;;6.33;6.33;;;;;;;;5016705;28;9045;-67
2023/02/05 02:49:49;;;;;;;;;6.67;5.33;;;;;;;;5021023;28;8860;-68
2023/02/05 02:52:17;;;;;;;;;3.33;3.33;;;;;;;;5010695;28;8800;-68
2023/02/05 02:54:45;;;;;;;;;3.33;3.33;;;;;;;;5010559;28;8822;-67
2023/02/05 02:57:11;;;;;;;;;6.00;3.00;;;;;;;;5010201;28;8808;-68
2023/02/05 02:59:38;;;;;;;;;3.00;3.00;;;;;;;;5008610;28;9577;-68
2023/02/05 03:02:05;;;;;;;;;3.00;3.00;;;;;;;;5010122;28;8998;-68
2023/02/05 03:04:36;;;;;;;;;4.00;3.00;;;;;;;;5009866;28;8796;-68
2023/02/05 03:07:09;;;;;;;;;5.33;3.00;;;;;;;;5010003;28;8836;-68
2023/02/05 03:09:41;;;;;;;;;6.00;4.00;;;;;;;;5009994;28;8776;-68
2023/02/05 03:12:06;;;;;;;;;6.00;4.00;;;;;;;;5010018;28;8787;-68
2023/02/05 03:14:32;;;;;;;;;4.00;4.00;;;;;;;;5009895;28;8780;-68
2023/02/05 03:16:57;;;;;;;;;1.00;1.00;;;;;;;;5009959;28;9617;-68
2023/02/05 03:19:22;;;;;;;;;3.67;3.67;;;;;;;;5010540;28;8796;-69
2023/02/05 03:21:50;;;;;;;;;3.00;3.00;;;;;;;;5009091;28;8828;-67
2023/02/05 03:24:15;;;;;;;;;3.00;3.00;;;;;;;;5008394;28;8981;-68
2023/02/05 03:26:41;;;;;;;;;3.00;3.00;;;;;;;;5009510;28;8789;-69
2023/02/05 03:29:10;;;;;;;;;4.00;2.33;;;;;;;;5009698;28;8834;-68
2023/02/05 03:31:41;;;;;;;;;3.33;3.33;;;;;;;;5009532;28;8804;-68
2023/02/05 03:34:22;;;;;;;;;2.00;2.00;;;;;;;;5008287;28;8828;-68
2023/02/05 03:36:48;;;;;;;;;8.67;4.00;;;;;;;;5009233;28;9013;-69
2023/02/05 03:39:22;;;;;;;;;5.00;2.00;;;;;;;;5009610;28;8820;-68
2023/02/05 03:41:57;;;;;;;;;6.33;3.33;;;;;;;;5009324;28;8926;-69
2023/02/05 03:44:22;;;;;;;;;5.00;4.00;;;;;;;;5009336;28;8989;-69
2023/02/05 03:46:58;;;;;;;;;2.00;2.00;;;;;;;;5009366;28;8780;-69
2023/02/05 03:49:23;;;;;;;;;3.33;3.33;;;;;;;;5009250;28;8814;-68
2023/02/05 03:52:04;;;;;;;;;2.67;2.67;;;;;;;;5008124;28;8812;-70
2023/02/05 03:54:36;;;;;;;;;4.00;2.00;;;;;;;;5009332;28;8788;-69
2023/02/05 03:57:01;;;;;;;;;4.00;2.00;;;;;;;;5009436;28;9511;-69
2023/02/05 03:59:27;;;;;;;;;2.00;2.00;;;;;;;;5009289;28;8792;-68
2023/02/05 04:01:53;;;;;;;;;1.67;1.67;;;;;;;;5009063;28;8851;-69
2023/02/05 04:04:19;;;;;;;;;4.00;2.00;;;;;;;;5008004;28;8800;-68
2023/02/05 04:06:48;;;;;;;;;4.00;2.00;;;;;;;;5009205;28;8800;-69
2023/02/05 04:09:13;;;;;;;;;2.67;1.33;;;;;;;;5009097;28;8974;-69
2023/02/05 04:11:39;;;;;;;;;4.00;1.33;;;;;;;;5007726;28;8823;-68
2023/02/05 04:14:04;;;;;;;;;2.00;1.33;;;;;;;;5009154;28;8808;-68
2023/02/05 04:16:29;;;;;;;;;2.00;2.00;;;;;;;;5008792;28;8845;-69
2023/02/05 04:18:54;;;;;;;;;2.00;2.00;;;;;;;;5008951;28;8807;-69
2023/02/05 04:21:20;;;;;;;;;3.33;1.33;;;;;;;;5009117;28;9566;-69
2023/02/05 04:23:45;;;;;;;;;2.00;2.00;;;;;;;;5008913;28;8815;-68
2023/02/05 04:26:10;;;;;;;;;2.00;0.67;;;;;;;;5024364;28;8804;-69
2023/02/05 04:28:36;;;;;;;;;2.00;1.00;;;;;;;;5008782;28;9630;-68
2023/02/05 04:31:01;;;;;;;;;5.67;2.00;;;;;;;;5023836;28;8816;-70
2023/02/05 04:33:26;;;;;;;;;1.67;1.00;;;;;;;;5008882;28;8812;-69
2023/02/05 04:35:56;;;;;;;;;1.00;1.00;;;;;;;;5008821;28;8784;-69
2023/02/05 04:38:22;;;;;;;;;1.00;1.00;;;;;;;;5009243;28;9565;-69
2023/02/05 04:40:47;;;;;;;;;1.00;1.00;;;;;;;;5008827;28;8796;-69
2023/02/05 04:43:12;;;;;;;;;5.00;0.33;;;;;;;;5008776;28;8824;-68
2023/02/05 04:45:40;;;;;;;;;2.67;2.00;;;;;;;;5008684;28;8823;-68
2023/02/05 04:48:05;;;;;;;;;1.00;1.00;;;;;;;;5008804;28;8812;-69
2023/02/05 04:50:30;;;;;;;;;2.00;1.00;;;;;;;;5011254;28;8823;-68
2023/02/05 04:52:56;;;;;;;;;4.00;2.00;;;;;;;;5012649;28;8784;-68
2023/02/05 04:55:21;;;;;;;;;1.00;1.00;;;;;;;;5012491;28;8792;-68
2023/02/05 04:57:46;;;;;;;;;0.67;0.33;;;;;;;;5012464;28;8981;-68
2023/02/05 05:00:15;;;;;;;;;1.00;1.00;;;;;;;;5011017;28;8808;-69
2023/02/05 05:02:40;;;;;;;;;2.67;1.00;;;;;;;;5012381;28;9535;-68
2023/02/05 05:05:06;;;;;;;;;1.00;1.00;;;;;;;;5012417;28;8800;-69
2023/02/05 05:07:31;;;;;;;;;1.00;1.00;;;;;;;;5012226;28;8832;-69
2023/02/05 05:09:57;;;;;;;;;0.00;0.00;;;;;;;;5012224;28;8820;-69
2023/02/05 05:12:22;;;;;;;;;1.33;1.33;;;;;;;;5012199;28;8915;-68
2023/02/05 05:14:47;;;;;;;;;1.00;1.00;;;;;;;;5011936;28;8815;-67
2023/02/05 05:17:13;;;;;;;;;0.00;0.00;;;;;;;;5012208;28;8811;-68
2023/02/05 05:19:39;;;;;;;;;0.00;0.00;;;;;;;;5012065;28;8800;-68
2023/02/05 05:22:04;;;;;;;;;0.00;0.00;;;;;;;;5012168;28;8800;-69
2023/02/05 05:24:29;;;;;;;;;2.00;1.00;;;;;;;;5011963;28;8808;-69
2023/02/05 05:26:54;;;;;;;;;2.00;1.00;;;;;;;;5011734;28;8862;-69
2023/02/05 05:29:20;;;;;;;;;5.00;1.00;;;;;;;;5011807;28;9606;-68
2023/02/05 05:31:45;;;;;;;;;1.00;1.00;;;;;;;;5011926;28;8808;-69
2023/02/05 05:34:10;;;;;;;;;6.00;1.00;;;;;;;;5011810;28;8804;-69
2023/02/05 05:36:35;;;;;;;;;0.00;0.00;;;;;;;;5011735;28;8819;-69
2023/02/05 05:44:31;;;;;;;;;1.00;1.00;;;;;;;;5011667;28;8780;-68
2023/02/05 05:46:57;;;;;;;;;4.00;1.33;;;;;;;;5011326;28;8893;-68
2023/02/05 05:49:22;;;;;;;;;4.67;2.00;;;;;;;;5011586;28;9620;-68
2023/02/05 05:51:47;;;;;;;;;0.00;0.00;;;;;;;;5011596;28;8792;-69
2023/02/05 05:54:12;;;;;;;;;1.00;1.00;;;;;;;;5011540;28;8816;-68
2023/02/05 05:56:38;;;;;;;;;2.00;1.00;;;;;;;;5011625;28;9533;-69
2023/02/05 05:59:03;;;;;;;;;3.33;1.00;;;;;;;;5011704;28;9505;-68
2023/02/05 06:01:28;;;;;;;;;0.33;0.33;;;;;;;;5011205;28;8803;-70
2023/02/05 06:03:53;;;;;;;;;2.00;2.00;;;;;;;;5011639;28;8942;-69
2023/02/05 06:06:19;;;;;;;;;1.00;1.00;;;;;;;;5011639;28;8804;-70
2023/02/05 06:08:44;;;;;;;;;2.00;2.00;;;;;;;;5009856;28;8863;-65
2023/02/05 06:11:09;;;;;;;;;1.00;0.33;;;;;;;;5011126;28;8788;-66
2023/02/05 06:13:35;;;;;;;;;0.00;0.00;;;;;;;;5011249;28;8814;-66
2023/02/05 06:16:00;;;;;;;;;1.33;1.00;;;;;;;;5002309;28;9746;-71
2023/02/05 06:18:27;;;;;;;;;0.00;0.00;;;;;;;;4998316;28;8932;-72
2023/02/05 06:20:52;;;;;;;;;1.00;1.00;;;;;;;;5001017;28;8905;-71
2023/02/05 06:23:20;;;;;;;;;4.00;1.00;;;;;;;;5000024;28;8818;-69
2023/02/05 06:25:45;;;;;;;;;0.00;0.00;;;;;;;;5000682;28;9483;-70
2023/02/05 06:28:11;;;;;;;;;1.00;1.00;;;;;;;;5001718;28;8945;-70
2023/02/05 06:30:36;;;;;;;;;0.00;0.00;;;;;;;;5007988;28;8768;-67
2023/02/05 06:33:01;;;;;;;;;0.33;0.00;;;;;;;;5003695;28;8791;-68
2023/02/05 06:35:27;;;;;;;;;1.00;1.00;;;;;;;;5001719;28;8917;-68
2023/02/05 06:37:52;;;;;;;;;1.00;1.00;;;;;;;;5000212;28;8866;-68
2023/02/05 06:40:19;;;;;;;;;0.00;0.00;;;;;;;;4999396;28;8943;-69
2023/02/05 06:42:45;;;;;;;;;2.67;1.00;;;;;;;;5001334;28;8808;-68
2023/02/05 06:45:10;;;;;;;;;1.00;1.00;;;;;;;;4999990;28;9541;-66
2023/02/05 06:47:36;;;;;;;;;1.00;1.00;;;;;;;;4999697;28;9058;-67
2023/02/05 06:50:01;;;;;;;;;3.00;1.33;;;;;;;;4983657;28;9588;-66
2023/02/05 06:52:26;;;;;;;;;2.67;1.00;;;;;;;;4999776;28;8823;-66
2023/02/05 06:54:52;;;;;;;;;2.00;2.00;;;;;;;;5000194;28;9557;-67
2023/02/05 06:57:17;;;;;;;;;0.00;0.00;;;;;;;;4990754;28;8857;-67
2023/02/05 06:59:42;;;;;;;;;4.00;1.00;;;;;;;;4990763;28;8798;-66
2023/02/05 07:02:09;;;;;;;;;1.00;1.00;;;;;;;;4990530;28;8791;-67
2023/02/05 07:04:34;;;;;;;;;1.00;1.00;;;;;;;;4992424;28;8966;-67
2023/02/05 07:06:59;;;;;;;;;2.00;0.67;;;;;;;;4990279;28;8906;-67
2023/02/05 07:09:25;;;;;;;;;1.00;1.00;;;;;;;;4990334;28;8932;-69
2023/02/05 07:11:53;;;;;;;;;0.00;0.00;;;;;;;;5005329;28;8810;-68
2023/02/05 19:06:33;;;;;;;;;3.00;2.67;;;;;;;;5128268;27;1326169;-67
2023/02/05 19:09:02;;;;;;;;;4.67;2.67;;;;;;;;5147989;27;8785;-66
2023/02/05 19:11:27;;;;;;;;;1.00;1.00;;;;;;;;5147291;27;11412;-68
2023/02/05 19:14:03;;;;;;;;;0.67;0.67;;;;;;;;5147543;27;11394;-67
2023/02/05 19:16:30;;;;;;;;;2.67;1.00;;;;;;;;5147589;27;8789;-65
2023/02/05 19:18:55;;;;;;;;;2.00;2.00;;;;;;;;5147802;27;11408;-66
2023/02/05 19:21:21;;;;;;;;;1.00;1.00;;;;;;;;5147304;27;11999;-66
2023/02/05 19:23:51;;;;;;;;;2.67;2.00;;;;;;;;5147725;27;8900;-67
2023/02/05 19:26:17;;;;;;;;;1.25;1.00;;;;;;;;5147431;27;11438;-65
2023/02/05 19:28:43;;;;;;;;;2.75;2.50;;;;;;;;5128639;27;11398;-66
2023/02/05 19:31:10;;;;;;;;;1.50;1.00;;;;;;;;5146880;27;11483;-66
2023/02/05 19:33:36;;;;;;;;;1.25;1.00;;;;;;;;5147141;27;11465;-64
2023/02/05 19:36:02;;;;;;;;;1.00;1.00;;;;;;;;5145344;27;12133;-67
2023/02/05 19:38:28;;;;;;;;;1.50;1.00;;;;;;;;5127269;27;8814;-66
2023/02/05 19:40:53;;;;;;;;;1.00;1.00;;;;;;;;5147084;27;11401;-66
2023/02/05 19:43:19;;;;;;;;;1.75;1.00;;;;;;;;5146911;27;8819;-66
2023/02/05 19:45:45;;;;;;;;;4.00;3.50;;;;;;;;5146490;27;8833;-65
2023/02/05 19:48:11;;;;;;;;;2.75;1.75;;;;;;;;5145008;27;8785;-66
2023/02/05 19:50:36;;;;;;;;;1.00;1.00;;;;;;;;5147001;27;8781;-66
2023/02/05 19:53:01;;;;;;;;;3.50;2.00;;;;;;;;5146464;27;12124;-65
2023/02/05 19:55:27;;;;;;;;;1.50;1.50;;;;;;;;5146502;27;8824;-65
2023/02/05 19:57:52;;;;;;;;;1.00;1.00;;;;;;;;5146163;27;8885;-66
2023/02/05 20:00:17;;;;;;;;;1.00;1.00;;;;;;;;5145382;27;8781;-66
2023/02/05 20:02:42;;;;;;;;;2.00;2.00;;;;;;;;5146682;27;8789;-66
2023/02/05 20:05:08;;;;;;;;;1.00;1.00;;;;;;;;5146328;27;8823;-66
2023/02/05 20:07:37;;;;;;;;;3.00;1.00;;;;;;;;5145740;27;8806;-66
2023/02/05 20:10:02;;;;;;;;;1.25;1.25;;;;;;;;5144786;27;8809;-64
2023/02/05 20:12:28;;;;;;;;;1.25;1.00;;;;;;;;5051326;28;11384;-64
2023/02/05 20:14:53;;;;;;;;;2.00;2.00;;;;;;;;5064303;28;8823;-64
2023/02/05 20:17:19;;;;;;;;;1.75;1.75;;;;;;;;5054683;28;12215;-64
2023/02/05 20:19:44;;;;;;;;;2.00;2.00;;;;;;;;5031513;28;8854;-65
2023/02/05 20:22:09;;;;;;;;;1.00;1.00;;;;;;;;5050573;28;8964;-65
2023/02/05 20:24:34;;;;;;;;;1.50;1.50;;;;;;;;5050188;28;8843;-66
2023/02/05 20:26:59;;;;;;;;;4.75;1.25;;;;;;;;5050235;28;8907;-67
2023/02/05 20:32:08;;;;;;;;;2.00;2.00;;;;;;;;5049265;28;8791;-66
2023/02/05 20:34:34;;;;;;;;;1.00;1.00;;;;;;;;5033541;28;11556;-64
2023/02/05 20:37:03;;;;;;;;;3.00;0.75;;;;;;;;5058935;28;8795;-66
2023/02/05 20:39:28;;;;;;;;;0.00;0.00;;;;;;;;5048946;28;8792;-65
2023/02/05 20:41:56;;;;;;;;;1.00;1.00;;;;;;;;5049545;28;11377;-66
2023/02/05 20:44:22;;;;;;;;;1.00;1.00;;;;;;;;5047245;28;8787;-65
2023/02/05 20:46:47;;;;;;;;;1.00;1.00;;;;;;;;5050055;28;11595;-65
2023/02/05 20:49:13;;;;;;;;;1.50;1.00;;;;;;;;5048513;28;8807;-64
2023/02/05 20:51:38;;;;;;;;;1.00;1.00;;;;;;;;5050043;28;8992;-65
2023/02/05 20:54:04;;;;;;;;;1.00;1.00;;;;;;;;5050198;28;8776;-65
2023/02/05 20:56:29;;;;;;;;;3.00;0.25;;;;;;;;5049508;28;8807;-67
2023/02/05 20:58:59;;;;;;;;;1.50;1.50;;;;;;;;5048101;28;8930;-68
2023/02/05 21:01:25;;;;;;;;;3.00;0.50;;;;;;;;5047330;28;8869;-64
2023/02/05 21:03:52;;;;;;;;;0.00;0.00;;;;;;;;5050096;28;11566;-66
2023/02/05 21:06:18;;;;;;;;;1.00;1.00;;;;;;;;5049077;28;11523;-66
2023/02/05 21:08:44;;;;;;;;;1.00;1.00;;;;;;;;5048119;28;11516;-66
2023/02/05 21:11:12;;;;;;;;;1.00;1.00;;;;;;;;5049535;28;11463;-65
2023/02/05 21:13:37;;;;;;;;;2.25;0.50;;;;;;;;5049748;28;11507;-67
2023/02/05 21:16:03;;;;;;;;;0.00;0.00;;;;;;;;5049492;28;11489;-66
2023/02/05 21:18:29;;;;;;;;;0.00;0.00;;;;;;;;5048017;28;8828;-65
2023/02/05 21:20:54;;;;;;;;;1.00;1.00;;;;;;;;5049008;28;8804;-64
2023/02/05 21:23:20;;;;;;;;;1.00;1.00;;;;;;;;5049652;28;8772;-65
2023/02/05 21:25:45;;;;;;;;;3.00;1.00;;;;;;;;5049372;28;8820;-67
2023/02/05 21:28:11;;;;;;;;;0.00;0.00;;;;;;;;5047194;28;8808;-67
2023/02/05 21:30:36;;;;;;;;;2.50;2.50;;;;;;;;5048460;28;8804;-67
2023/02/05 21:33:02;;;;;;;;;0.33;0.33;;;;;;;;5049804;28;8776;-67
2023/02/05 21:35:27;;;;;;;;;1.00;1.00;;;;;;;;5050552;28;9581;-66
2023/02/05 21:37:52;;;;;;;;;4.00;3.00;;;;;;;;5048868;28;8814;-67
2023/02/05 21:40:18;;;;;;;;;3.00;1.00;;;;;;;;5051678;28;8838;-67
2023/02/05 21:42:43;;;;;;;;;0.67;0.67;;;;;;;;5063581;28;8882;-67
2023/02/05 21:45:08;;;;;;;;;1.00;1.00;;;;;;;;5063947;28;8786;-67
2023/02/05 21:47:33;;;;;;;;;1.00;1.00;;;;;;;;5062724;28;8796;-66
2023/02/05 21:49:59;;;;;;;;;3.00;0.00;;;;;;;;5060953;28;8870;-66
2023/02/05 21:52:24;;;;;;;;;2.33;0.67;;;;;;;;5063675;28;8793;-66
2023/02/05 21:54:50;;;;;;;;;2.50;1.00;;;;;;;;5059132;28;8802;-66
2023/02/05 21:57:16;;;;;;;;;0.00;0.00;;;;;;;;5058330;28;8924;-66
2023/02/05 21:59:41;;;;;;;;;1.00;0.00;;;;;;;;5059761;28;11391;-66
2023/02/05 22:02:08;;;;;;;;;1.75;1.00;;;;;;;;5066351;28;11353;-66
2023/02/05 22:04:33;;;;;;;;;1.00;1.00;;;;;;;;5069148;28;8806;-66
2023/02/05 22:06:58;;;;;;;;;0.75;0.75;;;;;;;;5068711;28;12168;-66
2023/02/05 22:09:23;;;;;;;;;1.00;1.00;;;;;;;;5069158;28;8956;-65
2023/02/05 22:11:49;;;;;;;;;0.75;0.75;;;;;;;;5068665;28;8797;-65
2023/02/05 22:14:15;;;;;;;;;1.00;1.00;;;;;;;;5068920;28;9010;-66
2023/02/05 22:16:40;;;;;;;;;0.75;0.75;;;;;;;;5068949;28;8790;-65
2023/02/05 22:19:06;;;;;;;;;0.00;0.00;;;;;;;;5068943;28;8927;-66
2023/02/05 22:21:36;;;;;;;;;3.00;0.75;;;;;;;;5068921;28;8940;-65
2023/02/05 22:24:02;;;;;;;;;0.25;0.00;;;;;;;;5069051;28;8813;-66
2023/02/05 22:26:28;;;;;;;;;0.00;0.00;;;;;;;;5063617;28;11396;-67
2023/02/05 22:29:00;;;;;;;;;2.50;0.50;;;;;;;;5048851;28;11354;-69
2023/02/05 22:31:26;;;;;;;;;3.75;0.50;;;;;;;;5048762;28;11403;-65
2023/02/05 22:33:51;;;;;;;;;1.00;0.00;;;;;;;;5048573;28;11389;-66
2023/02/05 22:36:18;;;;;;;;;1.00;1.00;;;;;;;;5048694;28;8799;-67
2023/02/05 22:38:44;;;;;;;;;0.00;0.00;;;;;;;;5049050;28;8914;-66
2023/02/05 22:41:10;;;;;;;;;0.00;0.00;;;;;;;;5048261;28;11479;-67
2023/02/05 22:43:35;;;;;;;;;3.00;1.00;;;;;;;;5048852;28;8791;-67
2023/02/05 22:46:08;;;;;;;;;0.00;0.00;;;;;;;;5048774;28;11444;-67
2023/02/05 22:48:35;;;;;;;;;1.00;0.00;;;;;;;;5030494;28;8796;-66
2023/02/05 22:51:04;;;;;;;;;1.00;1.00;;;;;;;;5048897;28;11389;-66
2023/02/05 22:53:29;;;;;;;;;0.00;0.00;;;;;;;;5049051;28;11364;-67
2023/02/05 22:55:54;;;;;;;;;1.00;1.00;;;;;;;;5048895;28;11429;-66
2023/02/05 22:58:20;;;;;;;;;0.00;0.00;;;;;;;;5048752;28;8859;-67
2023/02/05 23:00:45;;;;;;;;;0.00;0.00;;;;;;;;5048639;28;8892;-66
2023/02/05 23:03:10;;;;;;;;;3.00;0.25;;;;;;;;5048715;28;8910;-66
2023/02/05 23:05:35;;;;;;;;;0.00;0.00;;;;;;;;5048316;28;8832;-68
2023/02/05 23:08:01;;;;;;;;;3.00;0.00;;;;;;;;5030685;28;8811;-66
2023/02/05 23:10:26;;;;;;;;;0.00;0.00;;;;;;;;5049007;28;8760;-66
2023/02/05 23:12:52;;;;;;;;;0.00;0.00;;;;;;;;5048776;28;9546;-66
2023/02/05 23:15:17;;;;;;;;;0.25;0.00;;;;;;;;5048793;28;8791;-67
2023/02/05 23:17:42;;;;;;;;;0.00;0.00;;;;;;;;5048858;28;8768;-66
2023/02/05 23:20:09;;;;;;;;;0.00;0.00;;;;;;;;5048823;28;8806;-67
2023/02/05 23:22:34;;;;;;;;;0.00;0.00;;;;;;;;5030357;28;8791;-67
2023/02/05 23:25:00;;;;;;;;;4.67;4.67;;;;;;;;5048420;28;11466;-66
2023/02/05 23:27:25;;;;;;;;;1.00;1.00;;;;;;;;5048376;28;8836;-66
2023/02/05 23:29:51;;;;;;;;;2.33;1.00;;;;;;;;5048274;28;8792;-67
2023/02/05 23:32:16;;;;;;;;;0.00;0.00;;;;;;;;5048270;28;8869;-66
2023/02/05 23:34:41;;;;;;;;;0.00;0.00;;;;;;;;5048346;28;9486;-66
2023/02/05 23:37:07;;;;;;;;;1.00;0.00;;;;;;;;5048097;28;8780;-66
2023/02/05 23:39:32;;;;;;;;;0.00;0.00;;;;;;;;5048422;28;8780;-66
2023/02/05 23:41:57;;;;;;;;;1.50;0.50;;;;;;;;5047956;28;8815;-66
2023/02/05 23:44:23;;;;;;;;;0.00;0.00;;;;;;;;5048166;28;8791;-66
2023/02/05 23:46:49;;;;;;;;;0.00;0.00;;;;;;;;5030120;28;8796;-66
2023/02/05 23:49:14;;;;;;;;;1.00;0.00;;;;;;;;5048101;28;8784;-66
2023/02/05 23:51:40;;;;;;;;;0.00;0.00;;;;;;;;5049131;28;8796;-66
2023/02/05 23:54:06;;;;;;;;;0.00;0.00;;;;;;;;5052168;28;8993;-66
2023/02/05 23:56:31;;;;;;;;;0.00;0.00;;;;;;;;5051758;28;8835;-67
2023/02/05 23:58:57;;;;;;;;;1.00;1.00;;;;;;;;5051252;28;8791;-67
